Date,TemperatureHighF,TemperatureAvgF,TemperatureLowF,DewpointHighF,DewpointAvgF,DewpointLowF,HumidityHigh,HumidityAvg,HumidityLow,PressureMaxIn,PressureMinIn,WindSpeedMaxMPH,WindSpeedAvgMPH,GustSpeedMaxMPH,PrecipitationSumIn
2013-12-1,34.7,31.3,24.4,32.0,29.0,19.0,97,91,79,30.45,30.03,2,0,5,0.02
2013-12-2,37.4,34.2,32.5,37.0,33.7,32.0,98,97,97,30.03,29.92,0,0,2,0.03
2013-12-3,46.3,33.4,26.9,41.0,30.8,26.0,98,91,67,29.95,29.87,7,0,13,0.00
2013-12-4,40.2,31.2,25.2,29.0,26.1,24.0,97,82,61,30.20,29.96,7,1,12,0.00
2013-12-5,52.9,35.0,24.4,52.0,33.9,23.0,98,96,89,30.21,29.91,6,0,14,0.01
2013-12-6,53.2,43.5,31.9,52.0,40.4,29.0,98,89,62,30.13,29.86,9,2,16,0.13
2013-12-7,33.4,28.6,19.1,31.0,25.2,17.0,97,87,73,30.45,30.06,11,2,16,0.03
2013-12-8,26.5,22.4,14.1,20.0,16.5,12.0,94,79,61,30.58,30.45,6,1,10,0.00
2013-12-9,33.1,27.5,20.9,32.0,26.0,18.0,98,93,81,30.50,29.88,6,0,7,0.00
2013-12-10,32.9,27.6,17.4,32.0,24.2,13.0,95,87,76,29.98,29.79,11,3,16,0.00
2013-12-11,26.9,21.4,15.8,18.0,15.3,12.0,89,78,61,30.17,29.98,12,4,19,0.00
2013-12-12,19.8,14.6,8.4,16.0,5.3,-1.0,91,68,42,30.26,30.05,13,2,22,0.00
2013-12-13,23.7,15.4,5.0,18.0,9.8,1.0,86,78,68,30.40,29.98,10,2,19,0.00
2013-12-14,11.9,7.5,2.3,9.0,-0.3,-6.0,90,72,46,30.60,30.22,5,1,11,0.00
2013-12-15,26.1,19.6,11.0,23.0,16.9,9.0,93,89,82,30.21,29.49,5,0,11,0.00
2013-12-16,22.5,17.7,2.9,19.0,8.6,0.0,88,68,49,30.19,29.73,10,3,23,0.00
2013-12-17,14.9,3.2,-13.2,13.0,0.1,-17.0,91,87,76,30.27,30.03,3,0,3,0.00
2013-12-18,29.1,21.8,14.6,20.0,17.5,12.0,94,84,67,30.06,29.92,0,0,0,0.00
2013-12-19,36.8,29.2,17.9,26.0,22.5,16.0,93,77,60,30.11,29.95,8,1,20,0.01
2013-12-20,50.0,37.2,27.1,37.0,30.7,25.0,93,79,50,30.12,29.90,5,1,13,0.13
2013-12-21,58.1,47.3,36.6,48.0,41.0,32.0,96,79,65,29.93,29.83,9,1,12,0.01
2013-12-22,49.7,37.4,31.3,49.0,36.7,31.0,98,97,92,30.01,29.79,4,0,9,0.10
2013-12-23,38.7,32.5,30.4,38.0,31.9,30.0,98,98,91,30.10,29.97,8,1,11,0.41
2013-12-24,32.9,27.5,20.1,31.0,18.4,10.0,91,69,53,30.19,30.05,12,3,17,0.00
2013-12-25,19.3,13.8,7.7,14.0,3.5,0.0,85,65,44,30.53,30.20,8,2,21,0.00
2013-12-26,29.4,21.9,11.8,27.0,18.4,8.0,91,86,73,30.49,30.09,8,1,14,0.00
2013-12-27,29.6,25.6,16.8,22.0,19.4,15.0,93,78,64,30.25,30.18,8,2,14,0.00
2013-12-28,42.6,32.9,21.3,30.0,25.5,18.0,89,75,57,30.20,29.98,14,3,21,0.05
2013-12-29,42.9,35.7,30.9,36.0,30.8,27.0,97,83,61,30.01,29.49,9,1,15,0.99
2013-12-30,36.4,28.3,11.1,34.0,21.6,7.0,98,77,52,30.14,29.55,16,4,23,0.01
2013-12-31,20.1,13.2,2.8,14.0,6.0,0.0,90,74,50,30.17,30.01,11,2,17,0.00